Climatologie pour Saint-Brevin les Pins
Jour • Résumé pour mars 11, 2017 Système :  Métrique    Anglais   Mixte
« - 1 jour
+ 1 jour »
Jour Semaine Mois Année Personnalisé
  Maximum : Minimum : Moyenne :
Température sous abri : 16.7 °C 6.2 °C 11.3 °C
Point de rosée : 13.1 °C 5.7 °C 9.8 °C
Humidité : 98 % 76 % 91 %
Vitesse du vent : 19.3 km/h 0.0 km/h 1.6 km/h
Rafale : 20.9 km/h - -
Direction :- - SE
Pression : 1020.2 hPa 1014.8 hPa -
Précipitations : 0.0 mm    
Historical Graphs
 
 
Tableau de données pour mars 11, 2017
Heure Tempé Pt rosée Pression Vent Vitesse Rafale Humidité Taux pluie (/hr) Soleil
00:00 8.7 °C 8.1 °C 1020.2 hPa Calm   6.4 km/h 96 % 0.0 mm 0 W/m2
00:10 8.1 °C 7.5 °C 1020.2 hPa Calm   3.2 km/h 96 % 0.0 mm 0 W/m2
00:15 7.7 °C 7.1 °C 1020.2 hPa Calm   1.6 km/h 96 % 0.0 mm 0 W/m2
00:20 7.5 °C 6.9 °C 1020.2 hPa Calm   3.2 km/h 96 % 0.0 mm 0 W/m2
00:25 7.6 °C 7.2 °C 1020.2 hPa Calm   3.2 km/h 97 % 0.0 mm 0 W/m2
00:30 8.1 °C 7.6 °C 1020.2 hPa SSE 1.6 km/h 3.2 km/h 97 % 0.0 mm 0 W/m2
00:35 8.1 °C 7.6 °C 1020.2 hPa Calm   3.2 km/h 97 % 0.0 mm 0 W/m2
00:40 7.8 °C 7.2 °C 1020.2 hPa Calm   3.2 km/h 96 % 0.0 mm 0 W/m2
00:45 7.8 °C 7.3 °C 1020.2 hPa Calm   4.8 km/h 97 % 0.0 mm 0 W/m2
00:50 7.8 °C 7.4 °C 1020.2 hPa Calm   4.8 km/h 97 % 0.0 mm 0 W/m2
00:55 7.6 °C 7.2 °C 1020.2 hPa Calm   4.8 km/h 97 % 0.0 mm 0 W/m2
01:00 7.4 °C 6.9 °C 1020.2 hPa Calm   1.6 km/h 97 % 0.0 mm 0 W/m2
01:05 7.2 °C 6.8 °C 1020.2 hPa Calm     97 % 0.0 mm 0 W/m2
01:10 7.2 °C 6.7 °C 1020.2 hPa Calm   1.6 km/h 97 % 0.0 mm 0 W/m2
01:15 7.3 °C 6.9 °C 1020.2 hPa Calm   1.6 km/h 97 % 0.0 mm 0 W/m2
01:20 7.7 °C 7.4 °C 1020.2 hPa Calm   1.6 km/h 98 % 0.0 mm 0 W/m2
01:25 7.7 °C 7.3 °C 1020.2 hPa Calm   1.6 km/h 97 % 0.0 mm 0 W/m2
01:35 7.9 °C 7.5 °C 1020.2 hPa SSE 1.6 km/h 3.2 km/h 97 % 0.0 mm 0 W/m2
01:40 8.1 °C 7.6 °C 1020.2 hPa Calm   3.2 km/h 97 % 0.0 mm 0 W/m2
01:45 8.3 °C 8.0 °C 1020.2 hPa Calm   3.2 km/h 98 % 0.0 mm 0 W/m2
01:50 8.1 °C 7.6 °C 1020.2 hPa Calm   3.2 km/h 97 % 0.0 mm 0 W/m2
01:55 8.3 °C 7.9 °C 1019.9 hPa Calm   3.2 km/h 97 % 0.0 mm 0 W/m2
02:00 8.6 °C 8.3 °C 1019.9 hPa Calm   4.8 km/h 98 % 0.0 mm 0 W/m2
02:10 8.4 °C 7.9 °C 1019.9 hPa Calm   4.8 km/h 97 % 0.0 mm 0 W/m2
02:15 8.6 °C 8.1 °C 1019.9 hPa ESE 3.2 km/h 4.8 km/h 97 % 0.0 mm 0 W/m2
02:20 8.7 °C 8.3 °C 1019.5 hPa ESE 4.8 km/h 4.8 km/h 97 % 0.0 mm 0 W/m2
02:25 8.9 °C 8.4 °C 1019.5 hPa ESE 3.2 km/h 6.4 km/h 97 % 0.0 mm 0 W/m2
02:30 8.9 °C 8.5 °C 1019.5 hPa Calm   6.4 km/h 97 % 0.0 mm 0 W/m2
02:40 8.7 °C 8.2 °C 1019.2 hPa SE 3.2 km/h 6.4 km/h 97 % 0.0 mm 0 W/m2
02:45 8.7 °C 8.3 °C 1019.2 hPa Calm   6.4 km/h 97 % 0.0 mm 0 W/m2
02:50 8.7 °C 8.3 °C 1019.2 hPa SE 3.2 km/h 4.8 km/h 97 % 0.0 mm 0 W/m2
02:55 8.7 °C 8.2 °C 1019.2 hPa Calm   4.8 km/h 97 % 0.0 mm 0 W/m2
03:00 8.4 °C 7.9 °C 1019.2 hPa Calm   4.8 km/h 97 % 0.0 mm 0 W/m2
03:05 8.5 °C 8.1 °C 1018.8 hPa SE 1.6 km/h 3.2 km/h 97 % 0.0 mm 0 W/m2
03:10 8.3 °C 7.9 °C 1018.8 hPa SE 1.6 km/h 4.8 km/h 97 % 0.0 mm 0 W/m2
03:15 8.2 °C 7.7 °C 1018.8 hPa SE 1.6 km/h 4.8 km/h 97 % 0.0 mm 0 W/m2
03:20 8.1 °C 7.7 °C 1018.8 hPa SE 1.6 km/h 3.2 km/h 97 % 0.0 mm 0 W/m2
03:25 8.2 °C 7.8 °C 1018.8 hPa Calm   4.8 km/h 97 % 0.0 mm 0 W/m2
03:30 8.1 °C 7.7 °C 1018.5 hPa Calm   4.8 km/h 97 % 0.0 mm 0 W/m2
03:40 8.0 °C 7.6 °C 1018.5 hPa SE 3.2 km/h 4.8 km/h 97 % 0.0 mm 0 W/m2
03:45 8.1 °C 7.7 °C 1018.5 hPa SE 3.2 km/h 6.4 km/h 97 % 0.0 mm 0 W/m2
03:50 8.3 °C 7.9 °C 1018.5 hPa SE 4.8 km/h 6.4 km/h 97 % 0.0 mm 0 W/m2
03:55 8.4 °C 8.0 °C 1018.2 hPa SE 1.6 km/h 8.0 km/h 97 % 0.0 mm 0 W/m2
04:00 8.6 °C 8.1 °C 1018.2 hPa SE 3.2 km/h 8.0 km/h 97 % 0.0 mm 0 W/m2
04:05 8.8 °C 8.3 °C 1018.2 hPa ESE 4.8 km/h 8.0 km/h 97 % 0.0 mm 0 W/m2
04:10 8.8 °C 8.4 °C 1018.2 hPa SE 8.0 km/h 8.0 km/h 97 % 0.0 mm 0 W/m2
04:20 8.7 °C 8.3 °C 1018.2 hPa Calm   8.0 km/h 97 % 0.0 mm 0 W/m2
04:25 8.6 °C 8.0 °C 1018.2 hPa Calm   6.4 km/h 96 % 0.0 mm 0 W/m2
04:30 8.5 °C 7.9 °C 1018.2 hPa Calm   6.4 km/h 96 % 0.0 mm 0 W/m2
04:35 8.4 °C 7.9 °C 1018.2 hPa East 1.6 km/h 8.0 km/h 97 % 0.0 mm 0 W/m2
04:40 8.2 °C 7.6 °C 1018.2 hPa Calm   8.0 km/h 96 % 0.0 mm 0 W/m2
04:45 7.9 °C 7.3 °C 1018.2 hPa Calm   3.2 km/h 96 % 0.0 mm 0 W/m2
04:50 7.8 °C 7.4 °C 1018.2 hPa East 3.2 km/h 4.8 km/h 97 % 0.0 mm 0 W/m2
04:55 7.7 °C 7.1 °C 1018.2 hPa East 1.6 km/h 4.8 km/h 96 % 0.0 mm 0 W/m2
05:00 7.8 °C 7.4 °C 1017.8 hPa East 3.2 km/h 4.8 km/h 97 % 0.0 mm 0 W/m2
05:05 7.9 °C 7.4 °C 1017.8 hPa East 3.2 km/h 4.8 km/h 97 % 0.0 mm 0 W/m2
05:10 7.9 °C 7.5 °C 1017.8 hPa East 1.6 km/h 4.8 km/h 97 % 0.0 mm 0 W/m2
05:15 7.7 °C 7.2 °C 1017.8 hPa Calm   4.8 km/h 97 % 0.0 mm 0 W/m2
05:20 7.6 °C 7.1 °C 1017.8 hPa Calm   4.8 km/h 97 % 0.0 mm 0 W/m2
05:25 7.3 °C 6.9 °C 1017.8 hPa Calm     97 % 0.0 mm 0 W/m2
05:30 7.3 °C 6.8 °C 1017.8 hPa Calm   3.2 km/h 97 % 0.0 mm 0 W/m2
05:40 6.9 °C 6.4 °C 1017.8 hPa Calm   3.2 km/h 97 % 0.0 mm 0 W/m2
05:45 6.7 °C 6.2 °C 1017.8 hPa Calm   3.2 km/h 97 % 0.0 mm 0 W/m2
06:00 6.4 °C 6.2 °C 1017.8 hPa Calm   1.6 km/h 98 % 0.0 mm 0 W/m2
06:05 6.6 °C 6.3 °C 1017.8 hPa Calm   1.6 km/h 98 % 0.0 mm 0 W/m2
06:10 6.7 °C 6.4 °C 1017.8 hPa Calm   1.6 km/h 98 % 0.0 mm 0 W/m2
06:15 6.4 °C 6.0 °C 1017.8 hPa Calm     97 % 0.0 mm 0 W/m2
06:20 6.2 °C 5.7 °C 1017.5 hPa Calm     97 % 0.0 mm 0 W/m2
06:30 6.2 °C 5.9 °C 1017.5 hPa Calm     98 % 0.0 mm 0 W/m2
06:35 6.3 °C 6.0 °C 1017.5 hPa Calm     98 % 0.0 mm 0 W/m2
06:45 6.3 °C 6.0 °C 1017.5 hPa East 3.2 km/h 3.2 km/h 98 % 0.0 mm 0 W/m2
06:50 6.5 °C 6.2 °C 1017.5 hPa East 1.6 km/h 3.2 km/h 98 % 0.0 mm 0 W/m2
06:55 6.3 °C 6.0 °C 1017.5 hPa East 3.2 km/h 3.2 km/h 98 % 0.0 mm 0 W/m2
07:00 6.2 °C 5.9 °C 1017.5 hPa East 1.6 km/h 3.2 km/h 98 % 0.0 mm 0 W/m2
07:10 6.3 °C 6.0 °C 1017.2 hPa East 1.6 km/h 3.2 km/h 98 % 0.0 mm 0 W/m2
07:15 6.5 °C 6.2 °C 1017.2 hPa Calm   3.2 km/h 98 % 0.0 mm 0 W/m2
07:20 6.5 °C 6.2 °C 1017.2 hPa Calm   3.2 km/h 98 % 0.0 mm 0 W/m2
07:25 6.4 °C 6.2 °C 1017.2 hPa Calm     98 % 0.0 mm 0 W/m2
07:30 6.7 °C 6.4 °C 1017.2 hPa Calm   3.2 km/h 98 % 0.0 mm 7 W/m2
07:35 6.6 °C 6.3 °C 1017.2 hPa Calm   3.2 km/h 98 % 0.0 mm 7 W/m2
07:40 6.7 °C 6.4 °C 1017.2 hPa East 3.2 km/h 4.8 km/h 98 % 0.0 mm 9 W/m2
07:45 6.7 °C 6.4 °C 1017.2 hPa East 1.6 km/h 8.0 km/h 98 % 0.0 mm 12 W/m2
07:50 6.9 °C 6.7 °C 1017.2 hPa East 1.6 km/h 8.0 km/h 98 % 0.0 mm 16 W/m2
07:55 7.1 °C 6.8 °C 1017.2 hPa Calm   4.8 km/h 98 % 0.0 mm 19 W/m2
08:05 7.2 °C 6.9 °C 1017.2 hPa Calm   3.2 km/h 98 % 0.0 mm 37 W/m2
08:10 7.6 °C 7.3 °C 1016.8 hPa East 3.2 km/h 4.8 km/h 98 % 0.0 mm 44 W/m2
08:15 7.8 °C 7.5 °C 1016.8 hPa East 1.6 km/h 8.0 km/h 98 % 0.0 mm 49 W/m2
08:20 7.9 °C 7.6 °C 1016.8 hPa ESE 8.0 km/h 8.0 km/h 98 % 0.0 mm 47 W/m2
08:25 7.9 °C 7.6 °C 1016.8 hPa East 3.2 km/h 8.0 km/h 98 % 0.0 mm 49 W/m2
08:30 8.1 °C 7.8 °C 1016.8 hPa SE 4.8 km/h 8.0 km/h 98 % 0.0 mm 54 W/m2
08:35 8.1 °C 7.8 °C 1016.8 hPa SE 1.6 km/h 9.7 km/h 98 % 0.0 mm 63 W/m2
08:40 8.3 °C 8.0 °C 1016.8 hPa ESE 3.2 km/h 9.7 km/h 98 % 0.0 mm 76 W/m2
08:45 8.4 °C 8.1 °C 1016.8 hPa Calm   6.4 km/h 98 % 0.0 mm 91 W/m2
08:50 8.5 °C 8.2 °C 1016.8 hPa SSE 4.8 km/h 9.7 km/h 98 % 0.0 mm 107 W/m2
08:55 8.7 °C 8.4 °C 1016.8 hPa Calm   9.7 km/h 98 % 0.0 mm 123 W/m2
09:00 8.8 °C 8.5 °C 1016.8 hPa Calm   4.8 km/h 98 % 0.0 mm 128 W/m2
09:05 9.0 °C 8.7 °C 1016.8 hPa ESE 4.8 km/h 8.0 km/h 98 % 0.0 mm 128 W/m2
09:10 9.1 °C 8.8 °C 1016.8 hPa ESE 4.8 km/h 9.7 km/h 98 % 0.0 mm 127 W/m2
09:15 9.2 °C 8.9 °C 1016.8 hPa ESE 4.8 km/h 9.7 km/h 98 % 0.0 mm 118 W/m2
09:20 9.3 °C 9.0 °C 1016.8 hPa ESE 3.2 km/h 8.0 km/h 98 % 0.0 mm 104 W/m2
09:25 9.2 °C 8.9 °C 1016.8 hPa East 3.2 km/h 12.9 km/h 98 % 0.0 mm 93 W/m2
09:30 9.3 °C 8.8 °C 1016.8 hPa Calm   12.9 km/h 97 % 0.0 mm 90 W/m2
09:35 9.3 °C 8.9 °C 1016.8 hPa ESE 1.6 km/h 6.4 km/h 97 % 0.0 mm 90 W/m2
09:40 9.4 °C 8.9 °C 1016.8 hPa ESE 1.6 km/h 4.8 km/h 97 % 0.0 mm 95 W/m2
09:45 9.4 °C 8.9 °C 1016.8 hPa ESE 3.2 km/h 9.7 km/h 97 % 0.0 mm 134 W/m2
09:50 9.4 °C 9.0 °C 1016.8 hPa Calm   9.7 km/h 97 % 0.0 mm 148 W/m2
09:55 9.6 °C 9.1 °C 1016.8 hPa Calm   8.0 km/h 97 % 0.0 mm 169 W/m2
10:00 9.8 °C 9.3 °C 1016.8 hPa ESE 3.2 km/h 8.0 km/h 97 % 0.0 mm 221 W/m2
10:05 9.8 °C 9.2 °C 1017.2 hPa Calm   4.8 km/h 96 % 0.0 mm 241 W/m2
10:10 10.1 °C 9.5 °C 1017.2 hPa ESE 1.6 km/h 3.2 km/h 96 % 0.0 mm 311 W/m2
10:15 10.4 °C 9.6 °C 1017.2 hPa Calm   4.8 km/h 95 % 0.0 mm 188 W/m2
10:20 10.6 °C 9.6 °C 1017.2 hPa East 1.6 km/h 8.0 km/h 94 % 0.0 mm 281 W/m2
10:25 10.9 °C 10.0 °C 1017.2 hPa East 4.8 km/h 9.7 km/h 94 % 0.0 mm 320 W/m2
10:30 11.2 °C 10.1 °C 1017.2 hPa Calm   9.7 km/h 93 % 0.0 mm 466 W/m2
10:35 11.8 °C 10.7 °C 1017.2 hPa ESE 4.8 km/h 9.7 km/h 93 % 0.0 mm 487 W/m2
10:40 12.2 °C 10.8 °C 1017.2 hPa East 1.6 km/h 8.0 km/h 91 % 0.0 mm 515 W/m2
10:45 12.6 °C 11.0 °C 1017.2 hPa East 3.2 km/h 8.0 km/h 90 % 0.0 mm 548 W/m2
10:50 12.9 °C 11.3 °C 1016.8 hPa East 4.8 km/h 11.3 km/h 90 % 0.0 mm 580 W/m2
10:55 13.1 °C 10.9 °C 1017.2 hPa ESE 4.8 km/h 11.3 km/h 87 % 0.0 mm 557 W/m2
11:00 13.5 °C 11.4 °C 1016.8 hPa ENE 1.6 km/h 11.3 km/h 87 % 0.0 mm 487 W/m2
11:05 13.7 °C 11.2 °C 1016.8 hPa ESE 1.6 km/h 6.4 km/h 85 % 0.0 mm 371 W/m2
11:10 13.7 °C 11.4 °C 1016.8 hPa ENE 4.8 km/h 8.0 km/h 86 % 0.0 mm 380 W/m2
11:20 13.8 °C 11.4 °C 1016.8 hPa East 3.2 km/h 11.3 km/h 85 % 0.0 mm 452 W/m2
11:25 14.4 °C 11.8 °C 1016.8 hPa ENE 1.6 km/h 11.3 km/h 84 % 0.0 mm 538 W/m2
11:30 14.7 °C 12.0 °C 1016.8 hPa ENE 8.0 km/h 11.3 km/h 84 % 0.0 mm 594 W/m2
11:35 14.8 °C 12.0 °C 1016.8 hPa ENE 1.6 km/h 11.3 km/h 83 % 0.0 mm 578 W/m2
11:40 15.1 °C 12.4 °C 1016.8 hPa ENE 8.0 km/h 11.3 km/h 84 % 0.0 mm 369 W/m2
11:45 14.7 °C 11.7 °C 1016.8 hPa Calm   11.3 km/h 82 % 0.0 mm 362 W/m2
11:50 14.8 °C 11.9 °C 1017.2 hPa ENE 3.2 km/h 6.4 km/h 83 % 0.0 mm 366 W/m2
11:55 14.9 °C 12.0 °C 1016.8 hPa ENE 1.6 km/h 4.8 km/h 83 % 0.0 mm 364 W/m2
12:00 15.0 °C 12.0 °C 1016.8 hPa ENE 4.8 km/h 4.8 km/h 82 % 0.0 mm 353 W/m2
12:05 15.3 °C 11.8 °C 1016.8 hPa East 3.2 km/h 8.0 km/h 80 % 0.0 mm 640 W/m2
12:10 15.4 °C 11.6 °C 1016.8 hPa Calm   11.3 km/h 78 % 0.0 mm 508 W/m2
12:15 15.4 °C 11.6 °C 1016.8 hPa East 4.8 km/h 11.3 km/h 78 % 0.0 mm 418 W/m2
12:20 15.7 °C 12.5 °C 1016.8 hPa ENE 3.2 km/h 8.0 km/h 81 % 0.0 mm 429 W/m2
12:25 16.0 °C 12.7 °C 1016.8 hPa East 1.6 km/h 8.0 km/h 81 % 0.0 mm 520 W/m2
12:30 16.3 °C 12.8 °C 1016.5 hPa NNE 8.0 km/h 8.0 km/h 80 % 0.0 mm 410 W/m2
12:35 16.1 °C 12.5 °C 1016.8 hPa Calm   8.0 km/h 79 % 0.0 mm 388 W/m2
12:40 16.0 °C 12.4 °C 1016.8 hPa Calm   8.0 km/h 79 % 0.0 mm 320 W/m2
12:45 15.9 °C 13.1 °C 1016.8 hPa North 1.6 km/h 6.4 km/h 83 % 0.0 mm 352 W/m2
12:50 16.0 °C 12.2 °C 1016.5 hPa Calm   4.8 km/h 78 % 0.0 mm 429 W/m2
12:55 16.3 °C 12.4 °C 1016.5 hPa Calm   6.4 km/h 78 % 0.0 mm 376 W/m2
13:00 16.5 °C 12.8 °C 1016.5 hPa NNE 4.8 km/h 6.4 km/h 79 % 0.0 mm 394 W/m2
13:05 16.6 °C 12.4 °C 1016.5 hPa NE 4.8 km/h 8.0 km/h 76 % 0.0 mm 378 W/m2
13:10 16.7 °C 12.4 °C 1016.5 hPa NNE 4.8 km/h 8.0 km/h 76 % 0.0 mm 330 W/m2
13:15 16.5 °C 12.5 °C 1016.1 hPa ENE 3.2 km/h 6.4 km/h 77 % 0.0 mm 313 W/m2
13:20 16.4 °C 12.2 °C 1016.1 hPa NE 4.8 km/h 8.0 km/h 76 % 0.0 mm 295 W/m2
13:25 16.3 °C 12.3 °C 1016.1 hPa Calm   8.0 km/h 77 % 0.0 mm 290 W/m2
13:30 16.2 °C 12.2 °C 1016.5 hPa Calm   4.8 km/h 77 % 0.0 mm 294 W/m2
13:40 16.4 °C 12.5 °C 1016.1 hPa Calm   6.4 km/h 78 % 0.0 mm 234 W/m2
13:45 16.3 °C 12.0 °C 1016.1 hPa Calm   6.4 km/h 76 % 0.0 mm 214 W/m2
13:50 16.3 °C 12.3 °C 1015.8 hPa Calm   4.8 km/h 77 % 0.0 mm 204 W/m2
13:55 16.2 °C 12.4 °C 1016.1 hPa Calm   4.8 km/h 78 % 0.0 mm 204 W/m2
14:00 16.3 °C 12.4 °C 1015.8 hPa ENE 4.8 km/h 4.8 km/h 78 % 0.0 mm 199 W/m2
14:05 16.3 °C 12.4 °C 1015.8 hPa Calm   8.0 km/h 78 % 0.0 mm 188 W/m2
14:10 16.4 °C 12.7 °C 1015.8 hPa Calm   8.0 km/h 79 % 0.0 mm 188 W/m2
14:20 16.3 °C 12.8 °C 1015.8 hPa NE 1.6 km/h 4.8 km/h 80 % 0.0 mm 223 W/m2
14:25 16.4 °C 12.7 °C 1015.8 hPa NE 3.2 km/h 4.8 km/h 79 % 0.0 mm 250 W/m2
14:30 16.4 °C 12.6 °C 1015.8 hPa Calm   4.8 km/h 78 % 0.0 mm 258 W/m2
14:40 16.5 °C 12.6 °C 1015.5 hPa Calm   4.8 km/h 78 % 0.0 mm 227 W/m2
14:45 16.4 °C 12.8 °C 1015.5 hPa North 1.6 km/h 4.8 km/h 79 % 0.0 mm 232 W/m2
14:50 16.5 °C 12.6 °C 1015.5 hPa Calm   4.8 km/h 78 % 0.0 mm 237 W/m2
14:55 16.6 °C 12.7 °C 1015.5 hPa NE 1.6 km/h 6.4 km/h 78 % 0.0 mm 237 W/m2
15:05 16.6 °C 12.7 °C 1015.1 hPa Calm   4.8 km/h 78 % 0.0 mm 214 W/m2
15:10 16.5 °C 12.6 °C 1015.1 hPa NE 3.2 km/h 4.8 km/h 78 % 0.0 mm 199 W/m2
15:15 16.4 °C 12.4 °C 1015.1 hPa NE 1.6 km/h 8.0 km/h 77 % 0.0 mm 190 W/m2
15:20 16.5 °C 12.6 °C 1015.1 hPa NE 1.6 km/h 8.0 km/h 78 % 0.0 mm 183 W/m2
15:25 16.6 °C 12.9 °C 1015.1 hPa NE 1.6 km/h 4.8 km/h 79 % 0.0 mm 178 W/m2
15:30 16.6 °C 13.1 °C 1015.1 hPa Calm   4.8 km/h 80 % 0.0 mm 172 W/m2
15:35 16.5 °C 12.3 °C 1015.1 hPa Calm   4.8 km/h 76 % 0.0 mm 181 W/m2
15:40 16.6 °C 13.0 °C 1015.1 hPa Calm   3.2 km/h 79 % 0.0 mm 200 W/m2
15:45 16.6 °C 12.9 °C 1015.1 hPa NW 4.8 km/h 6.4 km/h 79 % 0.0 mm 216 W/m2
15:50 16.4 °C 12.5 °C 1015.1 hPa NW 1.6 km/h 6.4 km/h 78 % 0.0 mm 218 W/m2
15:55 16.3 °C 12.5 °C 1015.1 hPa WNW 4.8 km/h 6.4 km/h 78 % 0.0 mm 206 W/m2
16:00 16.3 °C 12.6 °C 1015.1 hPa WNW 4.8 km/h 6.4 km/h 79 % 0.0 mm 195 W/m2
16:05 16.2 °C 12.3 °C 1015.1 hPa WNW 3.2 km/h 6.4 km/h 78 % 0.0 mm 185 W/m2
16:10 16.1 °C 12.4 °C 1015.1 hPa NW 3.2 km/h 6.4 km/h 79 % 0.0 mm 176 W/m2
16:15 15.8 °C 11.8 °C 1015.1 hPa WNW 4.8 km/h 8.0 km/h 77 % 0.0 mm 171 W/m2
16:20 15.7 °C 11.8 °C 1015.1 hPa West 4.8 km/h 8.0 km/h 78 % 0.0 mm 162 W/m2
16:25 15.3 °C 11.7 °C 1015.1 hPa WNW 4.8 km/h 6.4 km/h 79 % 0.0 mm 148 W/m2
16:30 14.9 °C 11.7 °C 1015.1 hPa Calm   6.4 km/h 81 % 0.0 mm 132 W/m2
16:35 14.8 °C 11.5 °C 1015.1 hPa Calm   6.4 km/h 81 % 0.0 mm 121 W/m2
16:40 14.7 °C 11.7 °C 1015.1 hPa Calm   3.2 km/h 82 % 0.0 mm 113 W/m2
16:45 14.7 °C 11.6 °C 1015.1 hPa Calm   4.8 km/h 82 % 0.0 mm 104 W/m2
16:50 14.6 °C 11.6 °C 1015.1 hPa WNW 3.2 km/h 4.8 km/h 82 % 0.0 mm 95 W/m2
16:55 14.6 °C 11.7 °C 1015.1 hPa WNW 3.2 km/h 4.8 km/h 83 % 0.0 mm 88 W/m2
17:00 14.6 °C 11.5 °C 1015.1 hPa WNW 1.6 km/h 3.2 km/h 82 % 0.0 mm 79 W/m2
17:10 14.5 °C 11.6 °C 1014.8 hPa Calm   4.8 km/h 83 % 0.0 mm 69 W/m2
17:15 14.6 °C 11.9 °C 1014.8 hPa Calm   1.6 km/h 84 % 0.0 mm 63 W/m2
17:20 14.4 °C 11.6 °C 1014.8 hPa Calm   3.2 km/h 83 % 0.0 mm 62 W/m2
17:25 14.4 °C 11.9 °C 1014.8 hPa Calm   3.2 km/h 85 % 0.0 mm 62 W/m2
17:30 14.3 °C 11.6 °C 1014.8 hPa Calm   1.6 km/h 84 % 0.0 mm 58 W/m2
17:35 14.3 °C 11.8 °C 1014.8 hPa Calm   1.6 km/h 85 % 0.0 mm 51 W/m2
17:40 14.2 °C 11.7 °C 1014.8 hPa Calm   1.6 km/h 85 % 0.0 mm 47 W/m2
17:45 14.2 °C 11.9 °C 1014.8 hPa Calm     86 % 0.0 mm 47 W/m2
17:50 14.2 °C 12.0 °C 1014.8 hPa Calm     87 % 0.0 mm 47 W/m2
17:55 14.1 °C 11.8 °C 1014.8 hPa Calm     86 % 0.0 mm 46 W/m2
18:00 14.2 °C 12.0 °C 1014.8 hPa Calm     87 % 0.0 mm 44 W/m2
18:05 14.1 °C 12.0 °C 1014.8 hPa Calm     87 % 0.0 mm 39 W/m2
18:10 14.2 °C 12.0 °C 1015.1 hPa Calm   1.6 km/h 87 % 0.0 mm 33 W/m2
18:15 14.3 °C 12.1 °C 1015.1 hPa Calm   3.2 km/h 87 % 0.0 mm 30 W/m2
18:20 14.2 °C 12.1 °C 1015.1 hPa Calm   3.2 km/h 87 % 0.0 mm 28 W/m2
18:25 14.2 °C 12.1 °C 1015.1 hPa Calm   3.2 km/h 87 % 0.0 mm 28 W/m2
18:30 14.1 °C 12.1 °C 1015.1 hPa Calm     88 % 0.0 mm 26 W/m2
18:35 14.1 °C 12.1 °C 1015.1 hPa Calm   1.6 km/h 88 % 0.0 mm 25 W/m2
18:40 13.9 °C 12.2 °C 1015.1 hPa Calm   1.6 km/h 89 % 0.0 mm 19 W/m2
18:45 13.8 °C 12.0 °C 1015.1 hPa Calm     89 % 0.0 mm 16 W/m2
18:50 13.6 °C 11.9 °C 1015.1 hPa Calm     90 % 0.0 mm 12 W/m2
18:55 13.4 °C 11.9 °C 1015.5 hPa Calm   1.6 km/h 91 % 0.0 mm 9 W/m2
19:00 13.4 °C 11.9 °C 1015.5 hPa Calm   1.6 km/h 91 % 0.0 mm 7 W/m2
19:05 13.3 °C 11.7 °C 1015.5 hPa Calm   3.2 km/h 90 % 0.0 mm 0 W/m2
19:10 13.1 °C 11.5 °C 1015.5 hPa Calm   3.2 km/h 90 % 0.0 mm 0 W/m2
19:15 12.8 °C 11.4 °C 1015.5 hPa Calm     91 % 0.0 mm 0 W/m2
19:20 12.6 °C 11.2 °C 1015.5 hPa Calm     91 % 0.0 mm 0 W/m2
19:25 12.4 °C 11.2 °C 1015.5 hPa Calm     92 % 0.0 mm 0 W/m2
19:30 12.2 °C 11.0 °C 1015.5 hPa Calm     92 % 0.0 mm 0 W/m2
19:35 12.1 °C 10.8 °C 1015.5 hPa Calm     92 % 0.0 mm 0 W/m2
19:40 11.9 °C 10.8 °C 1015.5 hPa Calm     93 % 0.0 mm 0 W/m2
19:45 12.1 °C 11.0 °C 1015.5 hPa Calm     93 % 0.0 mm 0 W/m2
19:50 11.9 °C 10.7 °C 1015.5 hPa Calm     92 % 0.0 mm 0 W/m2
19:55 11.9 °C 11.0 °C 1015.1 hPa Calm   1.6 km/h 94 % 0.0 mm 0 W/m2
20:00 11.8 °C 10.7 °C 1015.5 hPa Calm   1.6 km/h 93 % 0.0 mm 0 W/m2
20:10 11.9 °C 10.8 °C 1015.1 hPa Calm     93 % 0.0 mm 0 W/m2
20:15 11.6 °C 10.5 °C 1015.1 hPa Calm     93 % 0.0 mm 0 W/m2
20:25 11.4 °C 10.7 °C 1015.5 hPa Calm   3.2 km/h 95 % 0.0 mm 0 W/m2
20:30 11.3 °C 10.4 °C 1015.5 hPa Calm   3.2 km/h 94 % 0.0 mm 0 W/m2
20:35 11.6 °C 10.8 °C 1015.5 hPa Calm   3.2 km/h 95 % 0.0 mm 0 W/m2
20:40 11.7 °C 10.9 °C 1015.5 hPa Calm   3.2 km/h 95 % 0.0 mm 0 W/m2
20:45 11.4 °C 10.5 °C 1015.5 hPa Calm     94 % 0.0 mm 0 W/m2
20:50 11.3 °C 10.3 °C 1015.5 hPa Calm     94 % 0.0 mm 0 W/m2
20:55 11.1 °C 10.3 °C 1015.1 hPa Calm     95 % 0.0 mm 0 W/m2
21:00 11.3 °C 10.6 °C 1015.5 hPa West 6.4 km/h 6.4 km/h 95 % 0.0 mm 0 W/m2
21:05 11.6 °C 10.8 °C 1015.5 hPa Calm   6.4 km/h 95 % 0.0 mm 0 W/m2
21:10 11.6 °C 10.7 °C 1015.5 hPa Calm   6.4 km/h 94 % 0.0 mm 0 W/m2
21:15 11.6 °C 10.8 °C 1015.5 hPa Calm   1.6 km/h 95 % 0.0 mm 0 W/m2
21:20 11.4 °C 10.7 °C 1015.5 hPa Calm   1.6 km/h 95 % 0.0 mm 0 W/m2
21:25 11.4 °C 10.6 °C 1015.5 hPa Calm   1.6 km/h 95 % 0.0 mm 0 W/m2
21:30 11.4 °C 10.6 °C 1015.5 hPa Calm   1.6 km/h 95 % 0.0 mm 0 W/m2
21:40 11.4 °C 10.6 °C 1015.5 hPa SSE 1.6 km/h 6.4 km/h 95 % 0.0 mm 0 W/m2
21:45 11.3 °C 10.5 °C 1015.1 hPa Calm   4.8 km/h 95 % 0.0 mm 0 W/m2
21:50 11.3 °C 10.5 °C 1015.1 hPa Calm   3.2 km/h 95 % 0.0 mm 0 W/m2
21:55 11.3 °C 10.5 °C 1015.1 hPa Calm   1.6 km/h 95 % 0.0 mm 0 W/m2
22:00 11.3 °C 10.5 °C 1015.1 hPa SE 1.6 km/h 3.2 km/h 95 % 0.0 mm 0 W/m2
22:05 11.2 °C 10.4 °C 1015.1 hPa Calm   4.8 km/h 95 % 0.0 mm 0 W/m2
22:10 10.7 °C 9.8 °C 1015.1 hPa South 3.2 km/h 4.8 km/h 94 % 0.0 mm 0 W/m2
22:15 10.8 °C 10.2 °C 1015.5 hPa WNW 3.2 km/h 8.0 km/h 96 % 0.0 mm 0 W/m2
22:20 11.1 °C 10.5 °C 1015.8 hPa West 12.9 km/h 17.7 km/h 96 % 0.0 mm 0 W/m2
22:25 11.2 °C 10.6 °C 1015.8 hPa West 19.3 km/h 20.9 km/h 96 % 0.0 mm 0 W/m2
22:30 11.2 °C 10.4 °C 1015.8 hPa WSW 6.4 km/h 20.9 km/h 95 % 0.0 mm 0 W/m2
22:35 11.2 °C 10.4 °C 1015.8 hPa WSW 4.8 km/h 19.3 km/h 95 % 0.0 mm 0 W/m2
22:40 11.0 °C 10.2 °C 1015.8 hPa WNW 3.2 km/h 19.3 km/h 95 % 0.0 mm 0 W/m2
22:45 10.8 °C 9.9 °C 1015.5 hPa West 6.4 km/h 19.3 km/h 94 % 0.0 mm 0 W/m2
22:50 10.7 °C 9.7 °C 1015.5 hPa WSW 1.6 km/h 12.9 km/h 94 % 0.0 mm 0 W/m2
22:55 10.6 °C 9.6 °C 1015.8 hPa WNW 4.8 km/h 12.9 km/h 94 % 0.0 mm 0 W/m2
23:00 10.4 °C 9.5 °C 1015.5 hPa West 6.4 km/h 12.9 km/h 94 % 0.0 mm 0 W/m2
23:05 10.3 °C 9.4 °C 1015.5 hPa WNW 3.2 km/h 9.7 km/h 94 % 0.0 mm 0 W/m2
23:10 10.2 °C 9.5 °C 1015.5 hPa WNW 4.8 km/h 9.7 km/h 95 % 0.0 mm 0 W/m2
23:15 10.3 °C 9.5 °C 1015.5 hPa West 4.8 km/h 11.3 km/h 95 % 0.0 mm 0 W/m2
23:20 10.3 °C 9.6 °C 1015.5 hPa WNW 3.2 km/h 11.3 km/h 95 % 0.0 mm 0 W/m2
23:25 10.3 °C 9.4 °C 1015.5 hPa Calm   6.4 km/h 94 % 0.0 mm 0 W/m2
23:30 10.3 °C 9.4 °C 1015.1 hPa WNW 1.6 km/h 6.4 km/h 94 % 0.0 mm 0 W/m2
23:35 10.2 °C 9.2 °C 1015.1 hPa Calm   3.2 km/h 94 % 0.0 mm 0 W/m2
23:40 10.1 °C 9.2 °C 1015.1 hPa Calm   3.2 km/h 94 % 0.0 mm 0 W/m2
23:45 10.1 °C 9.2 °C 1015.1 hPa Calm   3.2 km/h 94 % 0.0 mm 0 W/m2
23:50 9.9 °C 9.2 °C 1015.1 hPa Calm     95 % 0.0 mm 0 W/m2
23:55 9.9 °C 9.1 °C 1015.1 hPa Calm     95 % 0.0 mm 0 W/m2
Avec l'autorisation de Weather Underground - 1.5 mb